createdAt,value
2023-04-20T00:01:13.973Z,7.55
2023-04-20T00:03:46.951Z,7.63
2023-04-20T00:06:14.083Z,7.58
2023-04-20T00:08:42.933Z,7.57
2023-04-20T00:11:11.217Z,7.49
2023-04-20T00:13:38.779Z,7.52
2023-04-20T00:16:07.276Z,7.44
2023-04-20T00:18:33.982Z,7.53
2023-04-20T00:21:00.767Z,7.55
2023-04-20T00:23:27.582Z,7.59
2023-04-20T00:25:54.581Z,7.51
2023-04-20T00:28:21.333Z,7.52
2023-04-20T00:30:48.330Z,7.57
2023-04-20T00:33:15.236Z,7.39
2023-04-20T00:35:44.642Z,7.50
2023-04-20T00:38:15.629Z,7.40
2023-04-20T00:40:48.026Z,7.47
2023-04-20T00:43:16.870Z,7.33
2023-04-20T00:45:51.451Z,7.39
2023-04-20T00:48:19.564Z,7.35
2023-04-20T00:50:47.358Z,7.36
2023-04-20T00:53:14.367Z,7.32
2023-04-20T00:55:43.765Z,7.30
2023-04-20T00:58:12.707Z,7.29
2023-04-20T01:00:40.637Z,7.28
2023-04-20T01:03:08.112Z,7.42
2023-04-20T01:05:35.669Z,7.35
2023-04-20T01:08:07.576Z,7.49
2023-04-20T01:10:38.268Z,7.45
2023-04-20T01:13:07.204Z,7.60
2023-04-20T01:15:35.363Z,7.51
2023-04-20T01:18:03.781Z,7.48
2023-04-20T01:20:30.740Z,7.36
2023-04-20T01:22:58.340Z,7.41
2023-04-20T01:25:29.911Z,7.50
2023-04-20T01:27:56.998Z,7.62
2023-04-20T01:30:31.831Z,7.56
2023-04-20T01:32:59.299Z,7.55
2023-04-20T01:35:26.428Z,7.55
2023-04-20T01:37:53.906Z,7.47
2023-04-20T01:40:23.361Z,7.49
2023-04-20T01:42:53.412Z,7.48
2023-04-20T01:45:22.544Z,7.41
2023-04-20T01:47:50.878Z,7.42
2023-04-20T01:50:17.751Z,7.44
2023-04-20T01:52:46.167Z,7.50
2023-04-20T01:55:13.469Z,7.50
2023-04-20T01:57:40.215Z,7.50
2023-04-20T02:00:09.045Z,7.59
2023-04-20T02:02:41.009Z,7.59
2023-04-20T02:05:08.460Z,7.45
2023-04-20T02:07:35.476Z,7.43
2023-04-20T02:10:03.591Z,7.31
2023-04-20T02:12:32.204Z,7.35
2023-04-20T02:14:59.099Z,7.33
2023-04-20T02:17:29.101Z,7.38
2023-04-20T02:19:56.861Z,7.29
2023-04-20T02:22:26.171Z,7.30
2023-04-20T02:24:53.620Z,7.08
2023-04-20T02:27:21.237Z,7.09
2023-04-20T02:29:48.243Z,7.01
2023-04-20T02:32:14.859Z,6.93
2023-04-20T02:34:41.743Z,6.96
2023-04-20T02:37:08.401Z,7.07
2023-04-20T02:39:51.243Z,6.96
2023-04-20T02:42:36.213Z,7.01
2023-04-20T02:45:06.710Z,6.95
2023-04-20T02:47:44.576Z,6.97
2023-04-20T02:53:11.605Z,6.92
2023-04-20T02:58:57.057Z,7.03
2023-04-20T03:01:47.153Z,7.01
2023-04-20T03:04:16.679Z,7.02
2023-04-20T03:06:53.786Z,7.04
2023-04-20T03:09:26.481Z,6.96
2023-04-20T03:11:58.047Z,7.01
2023-04-20T03:15:00.210Z,7.01
2023-04-20T03:17:44.140Z,6.96
2023-04-20T03:20:11.661Z,7.07
2023-04-20T03:22:38.538Z,6.93
2023-04-20T03:25:07.781Z,6.98
2023-04-20T03:27:51.227Z,6.91
2023-04-20T03:30:19.171Z,6.97
2023-04-20T03:32:50.350Z,6.85
2023-04-20T03:35:17.853Z,6.87
2023-04-20T03:37:44.724Z,6.97
2023-04-20T03:40:11.914Z,7.00
2023-04-20T03:42:38.627Z,6.93
2023-04-20T03:45:06.666Z,6.99
2023-04-20T03:47:33.468Z,6.81
2023-04-20T03:50:00.227Z,6.74
2023-04-20T03:52:27.141Z,6.64
2023-04-20T03:54:53.808Z,6.61
2023-04-20T03:57:20.476Z,6.58
2023-04-20T03:59:48.423Z,6.57
2023-04-20T04:02:18.880Z,6.56
2023-04-20T04:04:47.007Z,6.51
2023-04-20T04:07:13.846Z,6.50
2023-04-20T04:09:42.428Z,6.59
2023-04-20T04:12:09.600Z,6.62
2023-04-20T04:14:36.340Z,6.58
2023-04-20T04:17:03.703Z,6.65
2023-04-20T04:19:32.397Z,6.61
2023-04-20T04:21:59.634Z,6.62
2023-04-20T04:24:26.861Z,6.56
2023-04-20T04:27:05.337Z,6.67
2023-04-20T04:29:38.565Z,6.70
2023-04-20T04:32:09.662Z,6.71
2023-04-20T04:34:37.766Z,6.73
2023-04-20T04:37:04.870Z,6.79
2023-04-20T04:39:46.358Z,6.77
2023-04-20T04:42:19.240Z,6.77
2023-04-20T04:44:47.210Z,6.83
2023-04-20T04:47:22.117Z,6.87
2023-04-20T04:49:49.709Z,6.85
2023-04-20T04:52:16.367Z,6.96
2023-04-20T04:54:43.105Z,7.05
2023-04-20T04:57:09.727Z,7.07
2023-04-20T04:59:36.521Z,7.23
2023-04-20T05:02:03.318Z,7.22
2023-04-20T05:04:30.220Z,7.32
2023-04-20T05:06:57.035Z,7.38
2023-04-20T05:09:23.774Z,7.49
2023-04-20T05:11:50.422Z,7.48
2023-04-20T05:14:17.086Z,7.46
2023-04-20T05:16:43.918Z,7.64
2023-04-20T05:19:10.803Z,7.74
2023-04-20T05:21:39.301Z,7.88
2023-04-20T05:24:06.575Z,8.02
2023-04-20T05:26:33.345Z,8.12
2023-04-20T05:29:00.042Z,8.21
2023-04-20T05:31:26.807Z,8.24
2023-04-20T05:33:53.513Z,8.36
2023-04-20T05:36:20.786Z,8.37
2023-04-20T05:38:47.501Z,8.17
2023-04-20T05:41:14.201Z,8.38
2023-04-20T05:43:41.084Z,8.33
2023-04-20T05:46:07.694Z,8.50
2023-04-20T05:48:34.376Z,8.36
2023-04-20T05:51:01.099Z,8.50
2023-04-20T05:53:27.800Z,8.55
2023-04-20T05:55:54.544Z,8.19
2023-04-20T05:58:21.233Z,8.42
2023-04-20T06:00:47.902Z,8.54
2023-04-20T06:03:14.792Z,8.46
2023-04-20T06:05:41.680Z,8.36
2023-04-20T06:08:08.418Z,8.17
2023-04-20T06:10:35.226Z,8.26
2023-04-20T06:13:01.935Z,8.46
2023-04-20T06:15:28.658Z,8.59
2023-04-20T06:17:55.393Z,8.73
2023-04-20T06:20:22.159Z,8.98
2023-04-20T06:22:48.916Z,8.72
2023-04-20T06:25:16.009Z,8.90
2023-04-20T06:27:42.816Z,9.10
2023-04-20T06:30:10.115Z,9.05
2023-04-20T06:32:37.974Z,9.15
2023-04-20T06:35:07.871Z,9.27
2023-04-20T06:37:37.701Z,9.44
2023-04-20T06:40:08.950Z,9.55
2023-04-20T06:42:36.276Z,9.76
2023-04-20T06:45:06.759Z,9.93
2023-04-20T06:47:34.098Z,9.98
2023-04-20T06:50:02.221Z,10.08
2023-04-20T06:52:30.625Z,10.20
2023-04-20T06:54:59.389Z,10.04
2023-04-20T06:57:28.530Z,10.35
2023-04-20T06:59:55.219Z,10.44
2023-04-20T07:02:21.937Z,10.56
2023-04-20T07:04:48.883Z,10.65
2023-04-20T07:07:15.688Z,10.58
2023-04-20T07:09:42.406Z,10.84
2023-04-20T07:12:09.518Z,10.58
2023-04-20T07:14:36.188Z,10.46
2023-04-20T07:17:02.901Z,10.92
2023-04-20T07:19:29.618Z,10.70
2023-04-20T07:21:56.252Z,10.84
2023-04-20T07:24:22.892Z,10.94
2023-04-20T07:26:49.808Z,11.11
2023-04-20T07:29:19.018Z,11.19
2023-04-20T07:31:46.060Z,11.12
2023-04-20T07:34:12.800Z,10.87
2023-04-20T07:36:39.499Z,11.26
2023-04-20T07:39:06.261Z,11.38
2023-04-20T07:41:32.971Z,11.64
2023-04-20T07:43:59.785Z,11.76
2023-04-20T07:46:28.410Z,11.73
2023-04-20T07:48:55.123Z,11.95
2023-04-20T07:51:21.788Z,12.12
2023-04-20T07:53:48.571Z,12.41
2023-04-20T07:56:15.474Z,12.18
2023-04-20T07:58:42.155Z,12.24
2023-04-20T08:01:08.852Z,12.51
2023-04-20T08:03:36.404Z,12.01
2023-04-20T08:06:03.597Z,12.65
2023-04-20T08:08:30.439Z,12.90
2023-04-20T08:10:58.936Z,12.83
2023-04-20T08:13:26.030Z,12.97
2023-04-20T08:15:52.794Z,13.36
2023-04-20T08:18:21.181Z,13.68
2023-04-20T08:20:48.157Z,13.78
2023-04-20T08:23:14.818Z,13.89
2023-04-20T08:25:41.486Z,14.58
2023-04-20T08:28:12.025Z,14.06
2023-04-20T08:30:42.263Z,13.18
2023-04-20T08:33:08.992Z,14.58
2023-04-20T08:35:38.000Z,14.11
2023-04-20T08:38:04.659Z,14.67
2023-04-20T08:40:32.049Z,14.87
2023-04-20T08:43:01.577Z,15.27
2023-04-20T08:45:29.184Z,16.07
2023-04-20T08:47:59.811Z,16.28
2023-04-20T08:50:26.611Z,16.35
2023-04-20T08:52:53.228Z,16.36
2023-04-20T08:55:19.966Z,16.28
2023-04-20T08:57:49.062Z,16.42
2023-04-20T09:00:16.317Z,16.78
2023-04-20T09:02:54.523Z,16.04
2023-04-20T09:05:30.053Z,15.49
2023-04-20T09:07:59.100Z,15.76
2023-04-20T09:10:27.646Z,15.03
2023-04-20T09:12:54.378Z,14.77
2023-04-20T09:15:28.363Z,15.19
2023-04-20T09:17:55.766Z,15.00
2023-04-20T09:20:34.013Z,14.90
2023-04-20T09:23:13.613Z,14.91
2023-04-20T09:25:42.705Z,14.75
2023-04-20T09:28:09.923Z,14.70
2023-04-20T09:30:40.366Z,14.57
2023-04-20T09:33:08.655Z,14.45
2023-04-20T09:35:36.210Z,14.66
2023-04-20T09:38:02.885Z,14.61
2023-04-20T09:40:30.474Z,14.25
2023-04-20T09:42:59.458Z,14.56
2023-04-20T09:45:26.289Z,14.54
2023-04-20T09:47:53.214Z,14.58
2023-04-20T09:50:29.073Z,14.73
2023-04-20T09:53:00.342Z,14.07
2023-04-20T09:55:27.526Z,14.27
2023-04-20T09:57:54.416Z,14.32
2023-04-20T10:00:21.708Z,13.25
2023-04-20T10:02:48.614Z,14.08
2023-04-20T10:05:16.929Z,13.64
2023-04-20T10:07:44.193Z,13.24
2023-04-20T10:10:16.100Z,13.22
2023-04-20T10:12:50.341Z,14.13
2023-04-20T10:15:17.320Z,14.58
2023-04-20T10:17:44.531Z,14.98
2023-04-20T10:20:25.653Z,15.39
2023-04-20T10:22:53.098Z,15.91
2023-04-20T10:25:24.373Z,16.16
2023-04-20T10:27:55.528Z,16.22
2023-04-20T10:30:23.299Z,16.41
2023-04-20T10:32:50.688Z,15.96
2023-04-20T10:35:17.583Z,15.83
2023-04-20T10:37:49.552Z,16.10
2023-04-20T10:40:16.756Z,16.76
2023-04-20T10:42:44.766Z,16.26
2023-04-20T10:45:12.223Z,16.75
2023-04-20T10:47:40.842Z,17.09
2023-04-20T10:50:12.556Z,17.51
2023-04-20T10:52:41.090Z,17.90
2023-04-20T10:55:22.035Z,18.08
2023-04-20T10:57:49.525Z,18.10
2023-04-20T11:00:22.042Z,18.25
2023-04-20T11:02:54.214Z,18.29
2023-04-20T11:05:23.638Z,17.77
2023-04-20T11:08:01.226Z,17.51
2023-04-20T11:10:42.478Z,18.00
2023-04-20T11:13:25.835Z,18.19
2023-04-20T11:15:52.729Z,18.27
2023-04-20T11:18:19.542Z,18.10
2023-04-20T11:20:52.865Z,18.46
2023-04-20T11:23:21.338Z,18.53
2023-04-20T11:25:57.581Z,18.49
2023-04-20T11:28:25.910Z,18.68
2023-04-20T11:30:52.866Z,18.96
2023-04-20T11:33:29.906Z,19.11
2023-04-20T11:36:00.980Z,18.51
2023-04-20T11:38:28.599Z,17.55
2023-04-20T11:40:56.052Z,18.19
2023-04-20T11:43:22.945Z,18.58
2023-04-20T11:45:49.603Z,17.96
2023-04-20T11:48:16.284Z,18.19
2023-04-20T11:50:43.285Z,18.37
2023-04-20T11:53:14.072Z,17.83
2023-04-20T11:55:41.855Z,18.26
2023-04-20T11:58:08.746Z,18.59
2023-04-20T12:00:35.572Z,18.37
2023-04-20T12:03:02.488Z,18.80
2023-04-20T12:05:29.745Z,19.17
2023-04-20T12:07:56.775Z,19.40
2023-04-20T12:10:23.580Z,19.56
2023-04-20T12:12:50.282Z,19.59
2023-04-20T12:15:17.127Z,19.96
2023-04-20T12:17:43.780Z,19.94
2023-04-20T12:20:12.528Z,19.27
2023-04-20T12:22:39.297Z,19.02
2023-04-20T12:25:06.850Z,19.61
2023-04-20T12:27:33.509Z,20.17
2023-04-20T12:30:00.396Z,20.62
2023-04-20T12:32:27.170Z,20.90
2023-04-20T12:34:53.871Z,20.58
2023-04-20T12:37:20.827Z,20.76
2023-04-20T12:39:47.551Z,20.70
2023-04-20T12:42:14.264Z,20.60
2023-04-20T12:44:40.979Z,21.00
2023-04-20T12:47:10.067Z,21.24
2023-04-20T12:49:39.350Z,21.22
2023-04-20T12:52:07.922Z,19.95
2023-04-20T12:54:34.853Z,20.06
2023-04-20T12:57:02.533Z,20.21
2023-04-20T12:59:29.273Z,19.71
2023-04-20T13:01:56.030Z,19.29
2023-04-20T13:04:23.304Z,19.50
2023-04-20T13:06:50.416Z,18.60
2023-04-20T13:09:17.080Z,19.40
2023-04-20T13:11:43.810Z,19.65
2023-04-20T13:14:10.523Z,19.74
2023-04-20T13:16:37.692Z,19.88
2023-04-20T13:19:04.457Z,20.12
2023-04-20T13:21:31.092Z,20.79
2023-04-20T13:23:57.757Z,20.73
2023-04-20T13:26:24.428Z,21.01
2023-04-20T13:28:51.041Z,21.28
2023-04-20T13:31:17.805Z,21.30
2023-04-20T13:33:44.508Z,20.92
2023-04-20T13:36:11.456Z,20.89
2023-04-20T13:38:38.096Z,21.09
2023-04-20T13:41:05.016Z,20.41
2023-04-20T13:43:31.590Z,20.70
2023-04-20T13:45:58.327Z,21.04
2023-04-20T13:48:27.798Z,21.08
2023-04-20T13:50:54.765Z,20.85
2023-04-20T13:53:21.993Z,20.72
2023-04-20T13:55:48.742Z,21.18
2023-04-20T13:58:15.367Z,20.33
2023-04-20T14:00:41.998Z,20.38
2023-04-20T14:03:12.077Z,19.69
2023-04-20T14:05:39.045Z,19.64
2023-04-20T14:08:06.932Z,20.05
2023-04-20T14:10:34.088Z,20.16
2023-04-20T14:13:01.594Z,20.15
2023-04-20T14:15:28.323Z,20.21
2023-04-20T14:17:55.077Z,20.48
2023-04-20T14:20:21.802Z,20.81
2023-04-20T14:22:48.488Z,21.01
2023-04-20T14:25:15.048Z,21.07
2023-04-20T14:27:41.684Z,20.99
2023-04-20T14:30:09.176Z,20.97
2023-04-20T14:32:36.245Z,21.03
2023-04-20T14:35:05.623Z,21.21
2023-04-20T14:37:33.264Z,21.23
2023-04-20T14:39:59.961Z,21.16
2023-04-20T14:42:26.711Z,21.08
2023-04-20T14:44:53.615Z,20.87
2023-04-20T14:47:20.830Z,20.93
2023-04-20T14:49:47.974Z,20.79
2023-04-20T14:52:14.757Z,20.96
2023-04-20T14:54:41.345Z,21.00
2023-04-20T14:57:08.019Z,20.82
2023-04-20T14:59:34.687Z,20.78
2023-04-20T15:02:03.274Z,20.87
2023-04-20T15:04:30.782Z,20.65
2023-04-20T15:06:57.739Z,20.81
2023-04-20T15:09:24.444Z,20.82
2023-04-20T15:11:51.089Z,20.78
2023-04-20T15:14:17.796Z,20.51
2023-04-20T15:16:44.588Z,20.57
2023-04-20T15:19:11.247Z,20.42
2023-04-20T15:21:37.917Z,20.51
2023-04-20T15:24:04.805Z,20.39
2023-04-20T15:26:31.445Z,20.32
2023-04-20T15:28:58.041Z,20.30
2023-04-20T15:31:24.687Z,20.28
2023-04-20T15:33:51.465Z,20.28
2023-04-20T15:36:19.438Z,20.41
2023-04-20T15:38:46.442Z,20.29
2023-04-20T15:41:13.198Z,20.20
2023-04-20T15:43:39.849Z,20.12
2023-04-20T15:46:06.653Z,20.10
2023-04-20T15:48:33.336Z,19.81
2023-04-20T15:51:00.036Z,19.76
2023-04-20T15:53:26.779Z,19.72
2023-04-20T15:55:53.485Z,19.58
2023-04-20T15:58:20.160Z,19.47
2023-04-20T16:00:46.881Z,19.53
2023-04-20T16:03:13.718Z,19.52
2023-04-20T16:05:40.524Z,19.29
2023-04-20T16:08:07.275Z,19.29
2023-04-20T16:10:34.276Z,19.09
2023-04-20T16:13:00.983Z,18.89
2023-04-20T16:15:27.712Z,18.89
2023-04-20T16:17:54.837Z,18.78
2023-04-20T16:20:21.589Z,18.68
2023-04-20T16:22:48.276Z,18.52
2023-04-20T16:25:22.616Z,18.60
2023-04-20T16:27:51.512Z,18.49
2023-04-20T16:30:18.381Z,18.43
2023-04-20T16:32:45.122Z,18.38
2023-04-20T16:35:11.891Z,18.29
2023-04-20T16:37:38.646Z,18.28
2023-04-20T16:40:06.214Z,18.20
2023-04-20T16:42:34.302Z,18.13
2023-04-20T16:45:01.307Z,17.99
2023-04-20T16:47:28.025Z,17.96
2023-04-20T16:49:56.007Z,17.83
2023-04-20T16:52:22.698Z,17.62
2023-04-20T16:54:49.348Z,17.52
2023-04-20T16:57:16.005Z,17.38
2023-04-20T16:59:44.059Z,17.26
2023-04-20T17:02:12.478Z,17.15
2023-04-20T17:04:39.207Z,16.98
2023-04-20T17:07:06.305Z,16.82
2023-04-20T17:09:33.039Z,16.68
2023-04-20T17:11:59.801Z,16.55
2023-04-20T17:14:26.532Z,16.47
2023-04-20T17:16:54.285Z,16.36
2023-04-20T17:19:21.135Z,16.16
2023-04-20T17:21:47.866Z,16.13
2023-04-20T17:24:14.657Z,15.96
2023-04-20T17:26:41.306Z,15.81
2023-04-20T17:29:08.109Z,15.65
2023-04-20T17:31:34.845Z,15.64
2023-04-20T17:34:01.562Z,15.52
2023-04-20T17:36:28.201Z,15.39
2023-04-20T17:38:54.842Z,15.29
2023-04-20T17:41:21.472Z,15.14
2023-04-20T17:43:50.865Z,15.01
2023-04-20T17:46:17.569Z,14.88
2023-04-20T17:48:44.365Z,14.70
2023-04-20T17:51:13.694Z,14.58
2023-04-20T17:53:40.390Z,14.48
2023-04-20T17:56:07.080Z,14.37
2023-04-20T17:58:33.697Z,14.25
2023-04-20T18:01:00.368Z,14.15
2023-04-20T18:03:28.171Z,14.10
2023-04-20T18:05:54.986Z,13.93
2023-04-20T18:08:23.273Z,13.98
2023-04-20T18:10:50.065Z,13.73
2023-04-20T18:13:16.742Z,13.58
2023-04-20T18:15:43.723Z,13.41
2023-04-20T18:18:10.472Z,13.56
2023-04-20T18:20:37.108Z,13.37
2023-04-20T18:23:03.726Z,13.15
2023-04-20T18:25:30.412Z,13.03
2023-04-20T18:27:57.110Z,12.88
2023-04-20T18:30:23.795Z,12.71
2023-04-20T18:32:50.495Z,12.60
2023-04-20T18:35:17.235Z,12.49
2023-04-20T18:37:43.868Z,12.42
2023-04-20T18:40:11.005Z,12.29
2023-04-20T18:42:37.673Z,12.19
2023-04-20T18:45:06.182Z,12.13
2023-04-20T18:47:32.851Z,12.09
2023-04-20T18:49:59.576Z,12.02
2023-04-20T18:52:26.322Z,11.94
2023-04-20T18:54:55.388Z,11.79
2023-04-20T18:57:26.162Z,11.68
2023-04-20T18:59:53.062Z,11.63
2023-04-20T19:02:20.550Z,11.57
2023-04-20T19:04:47.352Z,11.49
2023-04-20T19:07:14.000Z,11.42
2023-04-20T19:09:40.758Z,11.34
2023-04-20T19:12:07.513Z,11.29
2023-04-20T19:14:34.279Z,11.22
2023-04-20T19:17:04.038Z,11.14
2023-04-20T19:19:30.729Z,11.06
2023-04-20T19:21:59.034Z,11.07
2023-04-20T19:24:25.840Z,11.06
2023-04-20T19:26:52.975Z,10.97
2023-04-20T19:29:19.735Z,10.80
2023-04-20T19:31:46.421Z,10.73
2023-04-20T19:34:13.518Z,10.65
2023-04-20T19:36:41.828Z,10.64
2023-04-20T19:39:09.234Z,10.49
2023-04-20T19:41:35.937Z,10.35
2023-04-20T19:44:06.188Z,10.32
2023-04-20T19:46:33.710Z,10.30
2023-04-20T19:49:03.307Z,10.30
2023-04-20T19:51:31.467Z,10.35
2023-04-20T19:54:01.903Z,10.24
2023-04-20T19:56:28.636Z,10.20
2023-04-20T19:58:55.355Z,10.09
2023-04-20T20:01:22.018Z,10.04
2023-04-20T20:03:48.843Z,9.95
2023-04-20T20:06:15.874Z,9.95
2023-04-20T20:08:42.706Z,9.85
2023-04-20T20:11:09.429Z,9.76
2023-04-20T20:13:36.028Z,9.70
2023-04-20T20:16:02.834Z,9.68
2023-04-20T20:18:29.484Z,9.63
2023-04-20T20:20:56.129Z,9.60
2023-04-20T20:23:22.786Z,9.62
2023-04-20T20:25:49.429Z,9.58
2023-04-20T20:28:16.110Z,9.50
2023-04-20T20:30:45.210Z,9.46
2023-04-20T20:33:12.507Z,9.43
2023-04-20T20:35:39.901Z,9.42
2023-04-20T20:38:07.790Z,9.31
2023-04-20T20:40:35.051Z,9.34
2023-04-20T20:43:02.129Z,9.31
2023-04-20T20:45:28.984Z,9.27
2023-04-20T20:47:55.840Z,9.23
2023-04-20T20:50:23.034Z,9.18
2023-04-20T20:52:49.883Z,9.15
2023-04-20T20:55:16.541Z,9.08
2023-04-20T20:57:43.270Z,9.08
2023-04-20T21:00:11.978Z,9.04
2023-04-20T21:02:39.082Z,8.99
2023-04-20T21:05:06.330Z,8.99
2023-04-20T21:07:33.101Z,8.95
2023-04-20T21:10:00.049Z,8.89
2023-04-20T21:12:26.678Z,8.89
2023-04-20T21:14:53.406Z,8.84
2023-04-20T21:17:20.397Z,8.82
2023-04-20T21:19:47.249Z,8.80
2023-04-20T21:22:13.987Z,8.76
2023-04-20T21:24:40.914Z,8.68
2023-04-20T21:27:07.548Z,8.60
2023-04-20T21:29:34.190Z,8.57
2023-04-20T21:32:00.853Z,8.54
2023-04-20T21:34:27.837Z,8.51
2023-04-20T21:36:54.735Z,8.48
2023-04-20T21:39:21.450Z,8.48
2023-04-20T21:41:48.191Z,8.42
2023-04-20T21:44:14.839Z,8.40
2023-04-20T21:46:41.634Z,8.36
2023-04-20T21:59:52.126Z,8.21
2023-04-20T22:02:19.446Z,8.18
2023-04-20T22:04:46.525Z,8.14
2023-04-20T22:07:14.667Z,8.14
2023-04-20T22:09:43.926Z,8.13
2023-04-20T22:12:13.314Z,8.12
2023-04-20T22:14:43.764Z,8.09
2023-04-20T22:17:12.535Z,8.06
2023-04-20T22:19:54.973Z,8.02
2023-04-20T22:22:23.496Z,8.07
2023-04-20T22:24:51.052Z,8.04
2023-04-20T22:27:18.386Z,7.97
2023-04-20T22:29:45.414Z,7.93
2023-04-20T22:32:12.306Z,7.86
2023-04-20T22:34:39.270Z,7.87
2023-04-20T22:37:09.125Z,7.84
2023-04-20T22:39:36.640Z,7.81
2023-04-20T22:50:14.759Z,7.66
2023-04-20T22:52:41.761Z,7.68
2023-04-20T22:55:09.697Z,7.62
2023-04-20T22:57:39.156Z,7.60
2023-04-20T23:00:10.274Z,7.52
2023-04-20T23:02:37.764Z,7.59
2023-04-20T23:05:06.480Z,7.55
2023-04-20T23:07:33.504Z,7.47
2023-04-20T23:10:00.485Z,7.51
2023-04-20T23:12:29.481Z,7.53
2023-04-20T23:15:00.538Z,7.55
2023-04-20T23:17:28.466Z,7.60
2023-04-20T23:19:56.567Z,7.60
2023-04-20T23:22:23.869Z,7.64
2023-04-20T23:24:50.885Z,7.69
2023-04-20T23:27:19.319Z,7.71
2023-04-20T23:29:46.480Z,7.69
2023-04-20T23:32:13.432Z,7.77
2023-04-20T23:34:40.323Z,7.77
2023-04-20T23:37:07.056Z,7.78
2023-04-20T23:39:37.995Z,7.74
2023-04-20T23:42:05.701Z,7.75
2023-04-20T23:44:32.525Z,7.75
2023-04-20T23:47:00.135Z,7.78
2023-04-20T23:49:27.161Z,7.74
2023-04-20T23:55:19.170Z,7.77
2023-04-20T23:57:47.652Z,7.73
